Time;durP1;ratioP1;P1;durP2;ratioP2;P2;SDS_P1;SDS_P2;PMS_P1;PMS_P2;Temp;Humidity;BMP_temperature;BMP_pressure;BME280_temperature;BME280_humidity;BME280_pressure;Samples;Min_cycle;Max_cycle;Signal;HPM_P1;HPM_P2
2021/11/24 00:00:49;;;;;;;6.50;3.85;;;7.70;99.90;;;;;;6241437;22;20145;-62
2021/11/24 00:03:15;;;;;;;5.32;3.53;;;7.70;99.90;;;;;;6239099;22;20008;-62
2021/11/24 00:05:41;;;;;;;9.30;3.33;;;7.70;99.90;;;;;;6238953;22;20017;-62
2021/11/24 00:08:06;;;;;;;5.88;3.55;;;7.80;99.90;;;;;;6241082;22;20009;-62
2021/11/24 00:10:35;;;;;;;4.72;3.35;;;7.70;99.90;;;;;;6239811;22;20008;-62
2021/11/24 00:13:02;;;;;;;7.05;3.80;;;7.80;99.90;;;;;;6241467;22;20016;-62
2021/11/24 00:15:28;;;;;;;5.85;3.15;;;7.80;99.90;;;;;;6240064;22;20008;-64
2021/11/24 00:17:53;;;;;;;5.40;3.35;;;7.80;99.90;;;;;;6239161;23;20346;-62
2021/11/24 00:20:19;;;;;;;8.27;3.22;;;7.70;99.90;;;;;;6240889;22;20015;-62
2021/11/24 00:22:45;;;;;;;6.43;3.08;;;7.80;99.90;;;;;;6240623;22;20008;-62
2021/11/24 00:25:11;;;;;;;5.28;3.58;;;7.80;99.90;;;;;;6239948;22;20458;-64
2021/11/24 00:27:37;;;;;;;5.10;2.90;;;7.80;99.90;;;;;;6240078;22;20070;-63
2021/11/24 00:30:05;;;;;;;7.25;2.88;;;7.80;99.90;;;;;;6241363;22;20008;-64
2021/11/24 00:32:31;;;;;;;5.28;3.58;;;7.80;99.90;;;;;;6240288;22;20087;-62
2021/11/24 00:34:56;;;;;;;5.75;2.95;;;7.80;99.90;;;;;;6241085;22;20520;-65
2021/11/24 00:37:22;;;;;;;8.07;3.85;;;7.80;99.90;;;;;;6237678;22;20095;-66
2021/11/24 00:39:48;;;;;;;8.55;3.40;;;7.90;99.90;;;;;;6240895;22;20008;-62
2021/11/24 00:42:14;;;;;;;6.38;3.42;;;7.90;99.90;;;;;;6240146;22;20011;-62
2021/11/24 00:44:39;;;;;;;5.55;3.13;;;7.90;99.90;;;;;;6240478;22;20397;-62
2021/11/24 00:47:05;;;;;;;5.25;2.75;;;7.90;99.90;;;;;;6240455;22;20004;-61
2021/11/24 00:49:31;;;;;;;8.32;3.38;;;7.90;99.90;;;;;;6239675;22;20015;-63
2021/11/24 00:51:56;;;;;;;7.32;3.03;;;7.90;99.90;;;;;;6240735;22;20008;-63
2021/11/24 00:54:22;;;;;;;9.57;4.03;;;7.90;99.90;;;;;;6240097;22;20346;-66
2021/11/24 00:56:48;;;;;;;6.95;3.70;;;8.00;99.90;;;;;;6240877;22;20004;-62
2021/11/24 00:59:14;;;;;;;8.82;3.25;;;8.00;99.90;;;;;;6240318;22;20469;-64
2021/11/24 01:01:39;;;;;;;6.93;3.13;;;8.00;99.90;;;;;;6239900;22;20036;-62
2021/11/24 01:04:05;;;;;;;10.32;3.47;;;8.00;99.90;;;;;;6240902;22;20382;-64
2021/11/24 01:06:31;;;;;;;10.32;4.05;;;8.00;99.90;;;;;;6238978;22;20066;-62
2021/11/24 01:08:56;;;;;;;7.30;3.60;;;8.00;99.90;;;;;;6241328;22;20427;-63
2021/11/24 01:11:22;;;;;;;9.35;3.40;;;8.00;99.90;;;;;;6240264;22;20489;-62
2021/11/24 01:13:48;;;;;;;6.70;2.83;;;8.00;99.90;;;;;;6240907;22;20016;-63
2021/11/24 01:16:14;;;;;;;6.97;3.13;;;8.00;99.90;;;;;;6239955;22;20093;-63
2021/11/24 01:18:40;;;;;;;6.55;3.35;;;8.00;99.90;;;;;;6240050;22;20087;-62
2021/11/24 01:21:06;;;;;;;5.55;3.15;;;8.00;99.90;;;;;;6240620;22;20031;-64
2021/11/24 01:23:32;;;;;;;6.68;2.65;;;8.10;99.90;;;;;;6237789;22;20119;-62
2021/11/24 01:25:58;;;;;;;7.22;2.95;;;8.10;99.90;;;;;;6240406;22;20376;-63
2021/11/24 01:28:23;;;;;;;6.55;3.10;;;8.20;99.90;;;;;;6239514;22;20326;-63
2021/11/24 01:30:49;;;;;;;5.90;2.80;;;8.20;99.90;;;;;;6240649;22;20015;-63
2021/11/24 01:33:15;;;;;;;4.70;2.40;;;8.20;99.90;;;;;;6240058;22;20004;-63
2021/11/24 01:35:41;;;;;;;8.07;3.10;;;8.20;99.90;;;;;;6238372;22;20082;-62
2021/11/24 01:38:07;;;;;;;8.95;2.90;;;8.20;99.90;;;;;;6242171;22;20075;-63
2021/11/24 01:40:33;;;;;;;7.38;2.70;;;8.20;99.90;;;;;;6241915;22;20035;-62
2021/11/24 01:42:58;;;;;;;6.35;2.75;;;8.20;99.90;;;;;;6242564;22;20493;-63
2021/11/24 01:45:25;;;;;;;6.03;2.70;;;8.20;99.90;;;;;;6241701;22;20020;-63
2021/11/24 01:47:51;;;;;;;6.13;2.63;;;8.20;99.90;;;;;;6242054;22;20082;-63
2021/11/24 01:50:18;;;;;;;6.00;3.00;;;8.20;99.90;;;;;;6242095;22;20004;-63
2021/11/24 01:52:44;;;;;;;8.15;3.40;;;8.20;99.90;;;;;;6241737;22;20015;-63
2021/11/24 01:55:11;;;;;;;6.03;2.42;;;8.20;99.90;;;;;;6242652;22;20004;-62
2021/11/24 01:57:40;;;;;;;5.80;2.63;;;8.20;99.90;;;;;;6240730;22;20034;-62
2021/11/24 02:00:08;;;;;;;5.13;2.30;;;8.20;99.90;;;;;;6242440;22;20485;-62
2021/11/24 02:02:33;;;;;;;5.90;2.90;;;8.10;99.90;;;;;;6240467;22;20489;-63
2021/11/24 02:04:59;;;;;;;6.05;2.47;;;8.20;99.90;;;;;;6242688;22;20016;-63
2021/11/24 02:07:25;;;;;;;7.75;2.63;;;8.10;99.90;;;;;;6239061;22;20041;-64
2021/11/24 02:09:50;;;;;;;5.85;2.10;;;8.10;99.90;;;;;;6240670;23;20350;-62
2021/11/24 02:12:16;;;;;;;9.10;3.45;;;8.10;99.90;;;;;;6241740;22;20010;-63
2021/11/24 02:14:43;;;;;;;7.03;2.85;;;8.10;99.90;;;;;;6241916;22;20019;-62
2021/11/24 02:17:10;;;;;;;5.78;2.60;;;8.20;99.90;;;;;;6241043;22;20090;-63
2021/11/24 02:19:37;;;;;;;6.70;2.92;;;8.20;99.90;;;;;;6241271;22;20035;-62
2021/11/24 02:22:04;;;;;;;7.03;2.83;;;8.20;99.90;;;;;;6242537;22;20008;-63
2021/11/24 02:24:33;;;;;;;7.40;2.85;;;8.10;99.90;;;;;;6240618;22;20016;-62
2021/11/24 02:27:00;;;;;;;7.88;2.65;;;8.10;99.90;;;;;;6241946;22;20016;-62
2021/11/24 02:29:27;;;;;;;6.03;2.78;;;8.10;99.90;;;;;;6241226;22;20012;-62
2021/11/24 02:31:57;;;;;;;7.90;2.90;;;8.10;99.90;;;;;;6242338;22;20047;-62
2021/11/24 02:34:23;;;;;;;7.40;2.78;;;8.10;99.90;;;;;;6241506;22;20012;-64
2021/11/24 02:36:49;;;;;;;5.38;2.22;;;8.10;99.90;;;;;;6241534;22;20034;-64
2021/11/24 02:39:14;;;;;;;6.57;2.92;;;8.10;99.90;;;;;;6241809;22;20335;-61
2021/11/24 02:41:42;;;;;;;7.00;2.83;;;8.00;99.90;;;;;;6241861;22;20013;-62
2021/11/24 02:44:25;;;;;;;7.78;3.08;;;8.10;99.90;;;;;;6241960;22;20019;-63
2021/11/24 02:46:53;;;;;;;9.82;2.75;;;8.10;99.90;;;;;;6240918;22;20008;-62
2021/11/24 02:49:18;;;;;;;4.82;2.90;;;8.00;99.90;;;;;;6241343;22;20008;-64
2021/11/24 02:51:45;;;;;;;5.70;2.90;;;8.00;99.90;;;;;;6241845;22;20008;-62
2021/11/24 02:54:11;;;;;;;5.70;3.00;;;8.00;99.90;;;;;;6241741;22;20004;-62
2021/11/24 02:56:39;;;;;;;7.78;2.80;;;8.00;99.90;;;;;;6240711;22;20016;-62
2021/11/24 02:59:06;;;;;;;10.00;3.33;;;8.00;99.90;;;;;;6241902;22;20387;-63
2021/11/24 03:01:32;;;;;;;7.97;3.08;;;8.10;99.90;;;;;;6241065;22;20069;-63
2021/11/24 03:03:58;;;;;;;11.23;3.53;;;8.00;99.90;;;;;;6241636;22;20584;-62
2021/11/24 03:06:23;;;;;;;6.85;3.08;;;8.10;99.90;;;;;;6240789;22;20005;-63
2021/11/24 03:08:49;;;;;;;5.00;2.13;;;8.10;99.90;;;;;;6241668;22;20339;-64
2021/11/24 03:11:15;;;;;;;4.78;2.92;;;8.00;99.90;;;;;;6241307;22;20004;-62
2021/11/24 03:13:40;;;;;;;6.00;3.13;;;8.10;99.90;;;;;;6240959;22;20036;-63
2021/11/24 03:16:06;;;;;;;6.82;2.78;;;8.00;99.90;;;;;;6239902;22;20004;-62
2021/11/24 03:18:31;;;;;;;6.57;2.85;;;8.00;99.90;;;;;;6240015;22;20435;-62
2021/11/24 03:20:57;;;;;;;7.53;3.83;;;8.10;99.90;;;;;;6241596;22;20084;-62
2021/11/24 03:23:22;;;;;;;4.93;2.45;;;8.10;99.90;;;;;;6240980;22;20011;-62
2021/11/24 03:25:48;;;;;;;7.07;2.97;;;8.00;99.90;;;;;;6241019;22;20020;-65
2021/11/24 03:28:14;;;;;;;6.93;4.07;;;8.00;99.90;;;;;;6240612;22;20050;-63
2021/11/24 03:30:39;;;;;;;8.75;2.85;;;8.00;99.90;;;;;;6240752;22;20008;-62
2021/11/24 03:33:05;;;;;;;6.60;3.00;;;7.90;99.90;;;;;;6241430;22;20011;-62
2021/11/24 03:35:34;;;;;;;10.13;3.70;;;7.90;99.90;;;;;;6240548;22;20372;-63
2021/11/24 03:38:01;;;;;;;5.90;3.10;;;7.90;99.90;;;;;;6241231;22;20012;-62
2021/11/24 03:40:29;;;;;;;7.00;3.72;;;7.90;99.90;;;;;;6240436;22;20073;-62
2021/11/24 03:42:56;;;;;;;9.32;3.03;;;7.90;99.90;;;;;;6241190;22;20136;-64
2021/11/24 03:45:28;;;;;;;5.88;2.80;;;7.90;99.90;;;;;;6240220;22;20058;-62
2021/11/24 03:47:55;;;;;;;8.32;3.22;;;7.90;99.90;;;;;;6240589;22;20062;-62
2021/11/24 03:50:21;;;;;;;8.40;3.13;;;8.00;99.90;;;;;;6240726;22;20004;-62
2021/11/24 03:52:47;;;;;;;7.30;3.38;;;7.90;99.90;;;;;;6238712;22;20014;-63
2021/11/24 03:55:14;;;;;;;8.75;3.92;;;8.00;99.90;;;;;;6240876;22;20008;-66
2021/11/24 03:57:39;;;;;;;7.13;3.15;;;8.00;99.90;;;;;;6240408;22;20516;-64
2021/11/24 04:00:11;;;;;;;5.82;3.00;;;8.00;99.90;;;;;;6240632;22;20008;-61
2021/11/24 04:02:38;;;;;;;6.18;3.33;;;7.90;99.90;;;;;;6240070;22;20083;-63
2021/11/24 04:05:05;;;;;;;6.32;2.58;;;8.00;99.90;;;;;;6241044;22;20039;-62
2021/11/24 04:07:30;;;;;;;6.63;2.97;;;7.90;99.90;;;;;;6239896;22;20091;-63
2021/11/24 04:09:56;;;;;;;4.95;2.40;;;8.00;99.90;;;;;;6240846;22;20036;-62
2021/11/24 04:12:22;;;;;;;5.13;2.85;;;8.00;99.90;;;;;;6240118;22;20016;-63
2021/11/24 04:14:47;;;;;;;5.15;2.50;;;8.00;99.90;;;;;;6238685;23;20012;-62
2021/11/24 04:17:13;;;;;;;8.73;3.10;;;8.00;99.90;;;;;;6240352;22;20015;-64
2021/11/24 04:19:39;;;;;;;9.38;2.70;;;7.90;99.90;;;;;;6240583;22;20062;-62
2021/11/24 04:22:06;;;;;;;10.63;3.10;;;7.90;99.90;;;;;;6241053;22;20012;-61
2021/11/24 04:24:32;;;;;;;4.95;2.63;;;8.00;99.90;;;;;;6238106;22;20012;-62
2021/11/24 04:26:58;;;;;;;5.85;3.25;;;8.00;99.90;;;;;;6240470;22;20016;-62
2021/11/24 04:29:23;;;;;;;4.85;2.90;;;8.00;99.90;;;;;;6239633;22;20026;-63
2021/11/24 04:31:49;;;;;;;7.82;3.80;;;8.00;99.90;;;;;;6238980;22;20032;-62
2021/11/24 04:34:15;;;;;;;8.02;3.38;;;8.00;99.90;;;;;;6240406;22;20338;-63
2021/11/24 04:36:40;;;;;;;8.32;3.60;;;8.00;99.90;;;;;;6239846;22;20012;-63
2021/11/24 04:39:06;;;;;;;7.18;3.00;;;8.00;99.90;;;;;;6241014;22;20506;-62
2021/11/24 04:41:31;;;;;;;7.53;3.55;;;7.90;99.90;;;;;;6239413;22;20012;-61
2021/11/24 04:43:57;;;;;;;6.40;3.22;;;8.00;99.90;;;;;;6240793;22;20012;-62
2021/11/24 04:46:23;;;;;;;6.35;2.60;;;8.00;99.90;;;;;;6239784;22;20000;-62
2021/11/24 04:48:49;;;;;;;8.32;2.97;;;7.90;99.90;;;;;;6240212;22;20001;-64
2021/11/24 04:51:15;;;;;;;7.63;2.88;;;8.00;99.90;;;;;;6240012;22;20004;-62
2021/11/24 04:53:41;;;;;;;4.68;2.60;;;8.00;99.90;;;;;;6240212;22;20018;-62
2021/11/24 04:56:06;;;;;;;7.25;2.85;;;7.90;99.90;;;;;;6240395;22;20000;-62
2021/11/24 04:58:35;;;;;;;8.10;3.20;;;7.90;99.90;;;;;;6239386;22;20012;-63
2021/11/24 05:01:01;;;;;;;6.10;2.97;;;8.00;99.90;;;;;;6238820;23;20012;-62
2021/11/24 05:03:27;;;;;;;5.93;2.75;;;8.00;99.90;;;;;;6239717;22;20087;-62
2021/11/24 05:05:53;;;;;;;6.53;3.03;;;8.00;99.90;;;;;;6240469;22;20508;-64
2021/11/24 05:08:18;;;;;;;4.85;2.85;;;8.00;99.90;;;;;;6239811;22;20288;-68
2021/11/24 05:10:46;;;;;;;5.68;2.70;;;8.00;99.90;;;;;;6237702;22;20057;-63
2021/11/24 05:13:12;;;;;;;6.05;2.65;;;7.90;99.90;;;;;;6240457;22;20030;-62
2021/11/24 05:15:41;;;;;;;7.78;3.17;;;7.90;99.90;;;;;;6239780;22;20667;-62
2021/11/24 05:18:09;;;;;;;8.27;3.92;;;7.90;99.90;;;;;;6240327;22;20023;-62
2021/11/24 05:20:35;;;;;;;5.90;3.20;;;7.90;99.90;;;;;;6239524;22;20004;-63
2021/11/24 05:23:05;;;;;;;5.80;3.13;;;8.00;99.90;;;;;;6238581;22;20542;-62
2021/11/24 05:25:33;;;;;;;8.30;3.53;;;8.00;99.90;;;;;;6239368;22;20016;-63
2021/11/24 05:27:59;;;;;;;10.80;3.78;;;8.00;99.90;;;;;;6240477;22;20014;-63
2021/11/24 05:30:27;;;;;;;6.20;3.17;;;8.00;99.90;;;;;;6239056;22;20004;-63
2021/11/24 05:32:52;;;;;;;8.80;3.60;;;7.90;99.90;;;;;;6240003;22;20015;-62
2021/11/24 05:35:21;;;;;;;7.30;3.13;;;8.00;99.90;;;;;;6240050;22;20027;-63
2021/11/24 05:37:48;;;;;;;7.15;3.42;;;8.00;99.90;;;;;;6238909;22;20012;-64
2021/11/24 05:40:14;;;;;;;11.52;4.25;;;8.00;99.90;;;;;;6239674;22;20754;-64
2021/11/24 05:42:46;;;;;;;8.18;3.80;;;8.00;99.90;;;;;;6239645;22;20016;-62
2021/11/24 05:45:26;;;;;;;7.40;3.88;;;8.00;99.90;;;;;;6240216;22;20062;-62
2021/11/24 05:50:18;;;;;;;8.02;4.22;;;7.90;99.90;;;;;;6239720;22;20338;-62
2021/11/24 05:52:44;;;;;;;10.63;3.72;;;8.00;99.90;;;;;;6239406;22;20011;-63
2021/11/24 05:55:10;;;;;;;6.45;3.10;;;7.90;99.90;;;;;;6240296;22;20019;-63
2021/11/24 05:57:35;;;;;;;5.75;3.17;;;8.00;99.90;;;;;;6238832;22;20012;-63
2021/11/24 06:00:03;;;;;;;6.15;4.00;;;7.90;99.90;;;;;;6232392;23;20015;-63
2021/11/24 06:02:28;;;;;;;5.30;3.28;;;7.90;99.90;;;;;;6236344;22;20008;-63
2021/11/24 06:04:54;;;;;;;6.72;3.30;;;7.90;99.90;;;;;;6235384;22;20012;-63
2021/11/24 06:07:19;;;;;;;6.35;3.17;;;7.90;99.90;;;;;;6234871;22;20084;-62
2021/11/24 06:09:45;;;;;;;9.05;3.33;;;8.00;99.90;;;;;;6236746;22;20428;-63
2021/11/24 06:12:10;;;;;;;5.85;3.30;;;8.00;99.90;;;;;;6237286;22;20731;-62
2021/11/24 06:14:36;;;;;;;8.13;4.00;;;8.00;99.90;;;;;;6235954;22;20612;-63
2021/11/24 06:17:02;;;;;;;8.35;3.70;;;8.00;99.90;;;;;;6236717;22;20008;-65
2021/11/24 06:19:27;;;;;;;9.82;3.83;;;8.00;99.90;;;;;;6235796;22;20039;-62
2021/11/24 06:21:53;;;;;;;7.75;4.28;;;8.00;99.90;;;;;;6236391;22;20011;-63
2021/11/24 06:24:18;;;;;;;8.45;4.10;;;8.00;99.90;;;;;;6237957;22;20016;-64
2021/11/24 06:26:44;;;;;;;8.88;3.90;;;8.00;99.90;;;;;;6238395;22;20016;-62
2021/11/24 06:29:10;;;;;;;10.20;4.32;;;8.00;99.90;;;;;;6238870;22;20001;-62
2021/11/24 06:31:35;;;;;;;9.40;4.38;;;8.00;99.90;;;;;;6238041;22;20494;-63
2021/11/24 06:34:01;;;;;;;9.75;4.10;;;8.00;99.90;;;;;;6238990;22;20012;-63
2021/11/24 06:36:27;;;;;;;8.18;3.85;;;8.00;99.90;;;;;;6237336;22;20065;-61
2021/11/24 06:38:53;;;;;;;7.93;4.45;;;8.00;99.90;;;;;;6238935;22;20011;-62
2021/11/24 06:41:19;;;;;;;11.05;4.75;;;8.00;99.90;;;;;;6238364;22;20476;-63
2021/11/24 06:43:44;;;;;;;9.73;4.93;;;8.10;99.90;;;;;;6238070;22;20004;-62
2021/11/24 06:46:10;;;;;;;10.07;5.20;;;8.10;99.90;;;;;;6239237;22;20004;-64
2021/11/24 06:48:36;;;;;;;11.85;6.22;;;8.00;99.90;;;;;;6237783;22;20070;-63
2021/11/24 06:51:02;;;;;;;11.73;6.35;;;8.00;99.90;;;;;;6238575;22;20339;-62
2021/11/24 06:53:27;;;;;;;17.23;6.47;;;8.00;99.90;;;;;;6237559;22;20004;-61
2021/11/24 06:55:53;;;;;;;15.55;6.28;;;8.00;99.90;;;;;;6238885;22;20335;-63
2021/11/24 06:58:19;;;;;;;14.85;6.40;;;8.00;99.90;;;;;;6237965;22;20019;-62
2021/11/24 07:00:45;;;;;;;16.15;6.97;;;8.00;99.90;;;;;;6238260;22;20000;-62
2021/11/24 07:03:10;;;;;;;13.70;7.22;;;8.00;99.90;;;;;;6240267;22;20008;-61
2021/11/24 07:05:36;;;;;;;14.43;7.80;;;8.00;99.90;;;;;;6236879;22;20028;-62
2021/11/24 07:08:03;;;;;;;17.35;7.82;;;8.00;99.90;;;;;;6238720;22;20565;-62
2021/11/24 07:10:28;;;;;;;15.98;7.53;;;8.00;99.90;;;;;;6238196;22;20352;-63
2021/11/24 07:12:55;;;;;;;15.43;7.93;;;8.00;99.90;;;;;;6238070;22;20062;-62
2021/11/24 07:15:20;;;;;;;20.33;8.68;;;7.90;99.90;;;;;;6236587;22;20008;-65
2021/11/24 07:17:46;;;;;;;19.17;8.00;;;8.00;99.90;;;;;;6237487;22;20008;-62
2021/11/24 07:20:12;;;;;;;18.52;8.68;;;8.00;99.90;;;;;;6238441;22;20008;-62
2021/11/24 07:22:37;;;;;;;22.55;9.57;;;8.00;99.90;;;;;;6237222;22;20023;-63
2021/11/24 07:25:04;;;;;;;21.60;9.90;;;7.90;99.90;;;;;;6238618;22;20020;-62
2021/11/24 07:27:30;;;;;;;23.42;8.82;;;8.00;99.90;;;;;;6235060;22;20015;-63
2021/11/24 07:29:55;;;;;;;20.42;9.63;;;7.90;99.90;;;;;;6238294;22;20000;-63
2021/11/24 07:32:21;;;;;;;20.52;9.38;;;7.90;99.90;;;;;;6237774;22;20015;-62
2021/11/24 07:34:47;;;;;;;23.58;10.00;;;7.90;99.90;;;;;;6237057;22;20012;-62
2021/11/24 07:37:12;;;;;;;20.80;10.30;;;7.90;99.90;;;;;;6238468;22;20577;-62
2021/11/24 07:39:38;;;;;;;24.83;9.65;;;7.90;99.90;;;;;;6237317;22;21177;-62
2021/11/24 07:42:04;;;;;;;21.98;9.02;;;7.90;99.90;;;;;;6237843;22;20438;-62
2021/11/24 07:44:30;;;;;;;19.38;9.20;;;7.90;99.90;;;;;;6237255;22;20016;-62
2021/11/24 07:46:56;;;;;;;23.42;9.73;;;8.00;99.90;;;;;;6238127;22;20130;-64
2021/11/24 07:49:21;;;;;;;24.05;10.27;;;8.00;99.90;;;;;;6237655;22;20486;-62
2021/11/24 07:51:47;;;;;;;21.73;10.25;;;8.00;99.90;;;;;;6237302;22;20000;-63
2021/11/24 07:54:13;;;;;;;23.50;10.10;;;8.00;99.90;;;;;;6238505;22;20393;-62
2021/11/24 07:56:39;;;;;;;20.35;9.68;;;8.00;99.90;;;;;;6236622;23;20535;-63
2021/11/24 07:59:05;;;;;;;21.38;9.95;;;8.00;99.90;;;;;;6238020;23;20012;-61
2021/11/24 08:01:30;;;;;;;19.67;8.88;;;8.00;99.90;;;;;;6236333;22;20346;-62
2021/11/24 08:03:56;;;;;;;22.60;9.20;;;8.00;99.90;;;;;;6237246;23;20023;-62
2021/11/24 08:06:21;;;;;;;17.70;8.23;;;8.10;99.90;;;;;;6236370;23;20544;-62
2021/11/24 08:08:47;;;;;;;21.75;9.13;;;8.00;99.90;;;;;;6236943;23;20086;-62
2021/11/24 08:11:13;;;;;;;19.02;8.60;;;7.90;99.90;;;;;;6237587;23;20496;-62
2021/11/24 08:13:38;;;;;;;17.88;8.20;;;8.00;99.90;;;;;;6233380;22;20915;-62
2021/11/24 08:16:04;;;;;;;21.73;8.27;;;8.00;99.90;;;;;;6237029;23;20434;-61
2021/11/24 08:18:30;;;;;;;18.60;8.20;;;8.00;99.90;;;;;;6234317;23;20075;-63
2021/11/24 08:20:55;;;;;;;16.70;6.80;;;8.10;99.90;;;;;;6211289;23;20008;-63
2021/11/24 08:23:21;;;;;;;12.73;6.85;;;8.10;99.90;;;;;;6236905;22;20431;-63
2021/11/24 08:25:47;;;;;;;14.05;6.68;;;8.10;99.90;;;;;;6237410;23;20016;-62
2021/11/24 08:28:13;;;;;;;16.15;6.82;;;8.10;99.90;;;;;;6237156;23;20027;-62
2021/11/24 08:30:39;;;;;;;13.30;6.30;;;8.10;99.90;;;;;;6235550;23;20584;-62
2021/11/24 08:33:04;;;;;;;12.23;6.15;;;8.10;99.90;;;;;;6236909;22;20759;-61
2021/11/24 08:35:30;;;;;;;12.95;5.70;;;8.10;99.90;;;;;;6236160;23;20008;-62
2021/11/24 08:37:56;;;;;;;13.55;5.30;;;8.10;99.90;;;;;;6237335;23;20008;-61
2021/11/24 08:40:21;;;;;;;11.27;5.82;;;8.10;99.90;;;;;;6237044;23;20008;-63
2021/11/24 08:42:47;;;;;;;14.10;5.93;;;8.20;99.90;;;;;;6237075;22;20008;-62
2021/11/24 08:45:13;;;;;;;13.10;5.78;;;8.20;99.90;;;;;;6237428;23;20331;-62
2021/11/24 08:47:40;;;;;;;10.30;5.85;;;8.20;99.90;;;;;;6209213;23;20115;-62
2021/11/24 08:50:08;;;;;;;12.57;5.30;;;8.20;99.90;;;;;;6236987;23;20004;-62
2021/11/24 08:52:34;;;;;;;14.95;5.63;;;8.20;99.90;;;;;;6236031;22;20095;-63
2021/11/24 08:55:02;;;;;;;12.43;5.43;;;8.30;99.90;;;;;;6238223;23;20032;-62
2021/11/24 08:57:28;;;;;;;10.35;4.85;;;8.20;99.90;;;;;;6235829;23;20015;-61
2021/11/24 08:59:53;;;;;;;15.93;6.15;;;8.20;99.90;;;;;;6238054;23;20008;-62
2021/11/24 09:02:20;;;;;;;15.60;6.03;;;8.20;99.90;;;;;;6236438;22;20012;-62
2021/11/24 09:04:46;;;;;;;15.05;6.90;;;8.30;99.90;;;;;;6210170;23;20023;-62
2021/11/24 09:07:11;;;;;;;15.60;7.38;;;8.30;99.90;;;;;;6236363;23;20004;-63
2021/11/24 09:09:39;;;;;;;13.88;6.95;;;8.40;99.90;;;;;;6236138;23;20240;-62
2021/11/24 09:12:06;;;;;;;12.75;6.35;;;8.40;99.90;;;;;;6237732;22;20378;-62
2021/11/24 09:14:31;;;;;;;14.90;6.75;;;8.40;99.90;;;;;;6236008;23;20047;-62
2021/11/24 09:16:57;;;;;;;12.88;6.28;;;8.40;99.90;;;;;;6236288;23;20004;-62
2021/11/24 09:19:23;;;;;;;13.65;6.38;;;8.50;99.90;;;;;;6236667;23;20058;-62
2021/11/24 09:21:49;;;;;;;13.10;6.38;;;8.40;99.90;;;;;;6237306;22;20024;-65
2021/11/24 09:24:21;;;;;;;12.05;4.88;;;8.40;99.90;;;;;;6236515;23;20023;-62
2021/11/24 09:27:02;;;;;;;13.30;5.60;;;8.40;99.90;;;;;;6236364;23;20012;-62
2021/11/24 09:29:28;;;;;;;11.18;4.78;;;8.40;99.90;;;;;;6236026;23;20019;-62
2021/11/24 09:31:55;;;;;;;9.20;4.80;;;8.40;99.90;;;;;;6237850;22;20083;-63
2021/11/24 09:34:22;;;;;;;11.25;4.82;;;8.40;99.90;;;;;;6236720;23;20036;-62
2021/11/24 09:36:48;;;;;;;10.98;4.95;;;8.40;99.90;;;;;;6236658;23;20087;-62
2021/11/24 09:39:14;;;;;;;10.80;5.50;;;8.50;99.90;;;;;;6237482;23;20042;-63
2021/11/24 09:41:45;;;;;;;9.90;5.03;;;8.50;99.90;;;;;;6208965;23;20687;-62
2021/11/24 09:44:11;;;;;;;;;;;8.50;99.90;;;;;;6237293;23;20038;-63
2021/11/24 09:46:46;;;;;;;10.57;5.20;;;8.60;99.90;;;;;;6235883;23;20333;-63
2021/11/24 09:49:13;;;;;;;9.88;4.65;;;8.60;99.90;;;;;;6236744;23;20000;-63
2021/11/24 09:51:40;;;;;;;9.40;4.75;;;8.60;99.90;;;;;;6236083;22;20393;-63
2021/11/24 09:54:06;;;;;;;10.73;5.32;;;8.60;99.90;;;;;;6237207;23;20042;-62
2021/11/24 09:56:32;;;;;;;8.32;4.60;;;8.70;99.90;;;;;;6235515;23;20004;-64
2021/11/24 09:58:58;;;;;;;10.07;4.80;;;8.60;99.90;;;;;;6238922;23;20020;-63
2021/11/24 10:01:24;;;;;;;8.27;4.45;;;8.70;99.90;;;;;;6238482;22;20381;-63
2021/11/24 10:03:50;;;;;;;9.48;4.25;;;8.70;99.90;;;;;;6238623;22;20027;-63
2021/11/24 10:06:16;;;;;;;12.77;4.25;;;8.70;99.90;;;;;;6239243;22;20431;-63
2021/11/24 10:08:42;;;;;;;10.30;4.80;;;8.80;99.90;;;;;;6236768;22;20016;-63
2021/11/24 10:11:08;;;;;;;9.30;4.95;;;8.80;99.90;;;;;;6239572;22;20426;-63
2021/11/24 10:13:34;;;;;;;11.35;5.35;;;8.80;99.90;;;;;;6238051;22;20450;-63
2021/11/24 10:16:01;;;;;;;8.77;4.55;;;8.80;99.90;;;;;;6239573;22;20011;-64
2021/11/24 10:18:30;;;;;;;11.73;5.38;;;8.80;99.90;;;;;;6236541;22;20004;-62
2021/11/24 10:20:56;;;;;;;9.07;4.70;;;8.90;99.90;;;;;;6239223;22;20015;-61
2021/11/24 10:23:26;;;;;;;9.40;4.75;;;8.80;99.90;;;;;;6238744;22;20012;-62
2021/11/24 10:25:52;;;;;;;12.25;5.00;;;8.80;99.90;;;;;;6238453;22;20012;-63
2021/11/24 10:28:30;;;;;;;13.02;5.68;;;8.80;99.90;;;;;;6238164;22;20028;-64
2021/11/24 10:30:56;;;;;;;8.45;4.32;;;8.90;99.90;;;;;;6238941;22;20008;-62
2021/11/24 10:33:26;;;;;;;11.30;4.60;;;8.90;99.90;;;;;;6238369;22;20083;-62
2021/11/24 10:36:06;;;;;;;9.88;5.32;;;8.90;99.90;;;;;;6239367;22;20030;-62
2021/11/24 10:38:44;;;;;;;11.73;4.97;;;8.90;99.90;;;;;;6236983;22;20030;-62
2021/11/24 10:41:11;;;;;;;8.65;4.82;;;8.90;99.90;;;;;;6237903;22;20034;-62
2021/11/24 10:43:45;;;;;;;11.73;5.07;;;8.90;99.90;;;;;;6237998;22;20027;-63
2021/11/24 10:46:13;;;;;;;10.75;4.85;;;8.90;99.90;;;;;;6238524;22;20008;-62
2021/11/24 10:48:40;;;;;;;10.65;5.40;;;8.90;99.90;;;;;;6236296;22;20066;-62
2021/11/24 10:51:28;;;;;;;10.88;4.93;;;8.90;99.90;;;;;;6239206;22;20571;-61
2021/11/24 10:54:17;;;;;;;9.98;4.90;;;9.00;99.90;;;;;;6238331;22;20442;-61
2021/11/24 10:57:06;;;;;;;10.80;4.78;;;9.00;99.90;;;;;;6237577;22;20070;-63
2021/11/24 10:59:35;;;;;;;9.20;5.57;;;9.00;99.90;;;;;;6238188;22;20011;-61
2021/11/24 11:02:25;;;;;;;12.98;6.50;;;9.00;99.90;;;;;;6238867;22;20435;-62
2021/11/24 11:04:57;;;;;;;9.43;5.25;;;9.00;99.90;;;;;;6237581;22;20611;-62
2021/11/24 11:07:22;;;;;;;10.30;5.45;;;9.00;99.90;;;;;;6238330;22;20434;-63
2021/11/24 11:09:48;;;;;;;11.05;6.15;;;9.00;99.90;;;;;;6237347;22;20014;-62
2021/11/24 11:12:15;;;;;;;11.32;5.45;;;9.00;99.90;;;;;;6238832;22;20063;-63
2021/11/24 11:14:40;;;;;;;10.32;5.05;;;9.00;99.90;;;;;;6239542;22;20070;-63
2021/11/24 11:17:06;;;;;;;9.98;5.05;;;9.00;99.90;;;;;;6235016;23;20004;-62
2021/11/24 11:19:45;;;;;;;9.75;5.75;;;9.00;99.90;;;;;;6237368;22;20458;-62
2021/11/24 11:22:16;;;;;;;11.50;6.22;;;9.10;99.90;;;;;;6238301;22;20381;-62
2021/11/24 11:24:41;;;;;;;12.63;5.03;;;9.00;99.90;;;;;;6237376;22;20402;-63
2021/11/24 11:27:07;;;;;;;11.20;5.57;;;9.10;99.90;;;;;;6236299;23;20035;-63
2021/11/24 11:29:34;;;;;;;11.38;5.50;;;9.10;99.90;;;;;;6237667;22;20004;-62
2021/11/24 11:32:00;;;;;;;9.82;4.95;;;9.10;99.90;;;;;;6237998;22;20465;-62
2021/11/24 11:34:26;;;;;;;11.20;5.75;;;9.10;99.90;;;;;;6237976;22;20042;-63
2021/11/24 11:36:52;;;;;;;9.30;4.78;;;9.10;99.90;;;;;;6238333;22;20001;-62
2021/11/24 11:39:18;;;;;;;9.73;4.80;;;9.10;99.90;;;;;;6238220;22;20062;-63
2021/11/24 11:41:44;;;;;;;14.70;5.78;;;9.10;99.90;;;;;;6237615;22;20078;-62
2021/11/24 11:44:13;;;;;;;9.35;4.82;;;9.20;99.90;;;;;;6238158;22;20016;-63
2021/11/24 11:46:45;;;;;;;9.68;4.78;;;9.30;99.90;;;;;;6236860;22;20011;-64
2021/11/24 11:49:14;;;;;;;10.80;4.35;;;9.30;99.90;;;;;;6237942;22;20000;-62
2021/11/24 11:51:42;;;;;;;10.60;5.10;;;9.20;99.90;;;;;;6237329;22;20012;-63
2021/11/24 11:54:10;;;;;;;11.10;4.38;;;9.30;99.90;;;;;;6238420;22;20453;-62
2021/11/24 11:56:44;;;;;;;12.02;4.82;;;9.30;99.90;;;;;;6236989;22;20022;-62
2021/11/24 11:59:25;;;;;;;8.45;4.22;;;9.40;99.90;;;;;;6238980;22;20386;-62
2021/11/24 12:01:50;;;;;;;8.80;3.83;;;9.40;99.90;;;;;;6237812;22;20070;-64
2021/11/24 12:04:20;;;;;;;7.65;3.45;;;9.40;99.90;;;;;;6237846;22;20012;-64
2021/11/24 12:06:51;;;;;;;6.57;3.67;;;9.40;99.90;;;;;;6237897;22;20023;-63
2021/11/24 12:09:47;;;;;;;9.18;3.83;;;9.50;99.90;;;;;;6235333;22;20039;-61
2021/11/24 12:12:16;;;;;;;8.80;4.45;;;9.50;99.90;;;;;;6237889;22;20016;-63
2021/11/24 12:15:02;;;;;;;9.15;4.32;;;9.50;99.90;;;;;;6237427;22;20004;-61
2021/11/24 12:17:32;;;;;;;8.43;4.65;;;9.50;99.90;;;;;;6236534;22;20004;-62
2021/11/24 12:20:13;;;;;;;8.80;4.40;;;9.50;99.90;;;;;;6235822;23;20012;-62
2021/11/24 12:22:52;;;;;;;9.02;5.20;;;9.40;99.90;;;;;;6235430;22;20008;-62
2021/11/24 12:25:18;;;;;;;8.40;4.80;;;9.40;99.90;;;;;;6236477;22;20043;-64
2021/11/24 12:28:06;;;;;;;10.85;5.25;;;9.40;99.90;;;;;;6235545;22;20016;-62
2021/11/24 12:33:10;;;;;;;9.20;5.32;;;9.50;99.90;;;;;;6240802;22;20496;-62
2021/11/24 12:35:45;;;;;;;12.18;4.38;;;9.40;99.90;;;;;;6238069;22;20447;-62
2021/11/24 12:38:11;;;;;;;8.55;4.47;;;9.40;99.90;;;;;;6238621;22;20012;-62
2021/11/24 12:40:41;;;;;;;11.75;5.32;;;9.30;99.90;;;;;;6238886;22;20085;-62
2021/11/24 12:43:16;;;;;;;10.88;5.15;;;9.40;99.90;;;;;;6241318;22;20347;-62
2021/11/24 12:46:00;;;;;;;9.50;5.15;;;9.40;99.90;;;;;;6238170;22;20012;-62
2021/11/24 12:48:48;;;;;;;9.68;4.10;;;9.40;99.90;;;;;;6239375;22;20019;-62
2021/11/24 12:51:24;;;;;;;9.80;5.38;;;9.40;99.90;;;;;;6238490;23;20024;-63
2021/11/24 12:53:53;;;;;;;8.20;4.55;;;9.30;99.90;;;;;;6240248;22;20012;-62
2021/11/24 12:56:25;;;;;;;8.77;4.38;;;9.30;99.90;;;;;;6240223;22;20011;-62
2021/11/24 12:58:51;;;;;;;9.90;5.70;;;9.40;99.90;;;;;;6240778;22;20054;-64